Ajax, Louisiana
Current Conditions -  °F | °C
As of 12:55 PM on Thursday 30 Oct 2014 (Local Time) from KIER Reporting Station
Clear Clear  
Wind Chill: 23°   Ceiling: Unl
Heat Index: 23°   Visibility: 10mi
Dew Point:   Wind: 3mph
Humidity: 40%   Direction: 10°N
Pressure: 30.15"   Gusts: NA
Location:  31.7926°N, 93.4001°W
Report Text: KIER 301755Z AUTO 01003KT 10SM CLR 23/08 A3015 RMK AO2 T02250083 10225 20052
Loading
Personal Weather Stations






























Interactive Weather Map
Tropical Storm Tracking
New forecast layout! Learn more

10-Day Weather Forecast

Advertisements
Track Severe Weather on mobile